createdAt,value
2022-09-02T00:01:10.646Z,75.71
2022-09-02T00:06:09.805Z,74.66
2022-09-02T00:11:08.969Z,74.97
2022-09-02T00:16:08.237Z,74.87
2022-09-02T00:21:07.420Z,75.61
2022-09-02T00:26:07.598Z,74.97
2022-09-02T00:31:05.852Z,74.57
2022-09-02T00:36:05.033Z,75.92
2022-09-02T00:41:05.345Z,75.31
2022-09-02T00:46:03.531Z,74.19
2022-09-02T00:51:03.711Z,74.40
2022-09-02T00:56:03.867Z,74.63
2022-09-02T01:01:02.413Z,75.07
2022-09-02T01:06:00.369Z,74.43
2022-09-02T01:10:59.545Z,75.14
2022-09-02T01:15:59.769Z,75.24
2022-09-02T01:20:59.949Z,75.14
2022-09-02T01:25:57.116Z,76.29
2022-09-02T01:30:57.279Z,75.99
2022-09-02T01:35:56.443Z,75.28
2022-09-02T01:40:55.594Z,75.18
2022-09-02T01:45:53.763Z,75.99
2022-09-02T01:50:53.927Z,75.52
2022-09-02T01:55:52.067Z,74.47
2022-09-02T02:00:51.255Z,74.71
2022-09-02T02:05:50.400Z,75.62
2022-09-02T02:10:49.552Z,77.84
2022-09-02T02:15:50.900Z,76.83
2022-09-02T02:20:48.066Z,76.53
2022-09-02T02:25:47.237Z,75.72
2022-09-02T02:30:46.454Z,75.42
2022-09-02T02:35:46.606Z,76.56
2022-09-02T02:40:44.853Z,75.85
2022-09-02T02:45:45.039Z,76.20
2022-09-02T02:50:44.215Z,76.09
2022-09-02T02:55:42.370Z,76.43
2022-09-02T03:00:41.521Z,76.40
2022-09-02T03:05:41.686Z,76.03
2022-09-02T03:10:41.857Z,75.93
2022-09-02T03:15:40.145Z,75.04
2022-09-02T03:20:38.316Z,75.08
2022-09-02T03:25:39.500Z,75.42
2022-09-02T03:30:38.657Z,75.52
2022-09-02T03:35:35.809Z,76.03
2022-09-02T03:40:36.020Z,75.22
2022-09-02T03:45:35.235Z,75.32
2022-09-02T03:50:33.349Z,75.82
2022-09-02T03:55:32.512Z,75.66
2022-09-02T04:00:33.698Z,75.46
2022-09-02T04:05:30.905Z,76.06
2022-09-02T04:10:30.076Z,75.56
2022-09-02T04:15:30.234Z,75.66
2022-09-02T04:20:28.390Z,75.01
2022-09-02T04:25:28.524Z,75.46
2022-09-02T04:30:26.675Z,75.66
2022-09-02T04:35:26.855Z,74.65
2022-09-02T04:40:25.026Z,74.98
2022-09-02T04:45:29.146Z,75.39
2022-09-02T04:50:23.447Z,75.56
2022-09-02T04:55:22.634Z,76.00
2022-09-02T05:00:22.830Z,76.27
2022-09-02T05:05:21.993Z,75.19
2022-09-02T05:10:20.174Z,76.51
2022-09-02T05:15:18.337Z,76.10
2022-09-02T05:20:18.542Z,77.45
2022-09-02T05:25:17.717Z,75.76
2022-09-02T05:30:16.855Z,75.90
2022-09-02T05:35:16.239Z,76.31
2022-09-02T05:40:22.521Z,75.86
2022-09-02T05:45:16.693Z,77.34
2022-09-02T05:50:14.343Z,77.11
2022-09-02T05:55:14.142Z,78.53
2022-09-02T06:00:17.685Z,77.58
2022-09-02T06:05:11.526Z,77.14
2022-09-02T06:10:12.696Z,77.64
2022-09-02T06:15:09.850Z,77.30
2022-09-02T06:20:08.997Z,76.35
2022-09-02T06:25:08.261Z,76.46
2022-09-02T06:30:08.469Z,75.75
2022-09-02T06:35:07.656Z,75.41
2022-09-02T06:40:04.944Z,74.57
2022-09-02T06:45:05.194Z,72.68
2022-09-02T06:50:05.470Z,74.02
2022-09-02T06:55:03.654Z,70.79
2022-09-02T07:00:03.815Z,70.49
2022-09-02T07:05:03.081Z,73.49
2022-09-02T07:10:01.260Z,73.69
2022-09-02T07:15:00.438Z,73.35
2022-09-02T07:19:59.644Z,68.21
2022-09-02T07:24:58.807Z,69.05
2022-09-02T07:29:57.989Z,71.03
2022-09-02T07:34:57.182Z,69.32
2022-09-02T07:39:56.351Z,66.83
2022-09-02T07:44:55.548Z,69.85
2022-09-02T07:54:55.020Z,71.37
2022-09-02T07:59:55.190Z,69.79
2022-09-02T08:04:54.373Z,70.62
2022-09-02T08:09:52.554Z,65.64
2022-09-02T08:14:50.712Z,64.20
2022-09-02T08:19:49.915Z,65.64
2022-09-02T08:24:49.098Z,65.84
2022-09-02T08:29:49.293Z,66.50
2022-09-02T08:34:46.476Z,63.17
2022-09-02T08:39:48.698Z,64.27
2022-09-02T08:44:45.846Z,65.10
2022-09-02T08:49:45.157Z,63.23
2022-09-02T08:54:46.418Z,63.40
2022-09-02T08:59:43.611Z,64.17
2022-09-02T09:04:44.790Z,63.36
2022-09-02T09:09:43.133Z,64.43
2022-09-02T09:14:41.293Z,64.34
2022-09-02T09:19:41.452Z,62.17
2022-09-02T09:24:39.624Z,63.90
2022-09-02T09:29:38.866Z,63.50
2022-09-02T09:34:37.954Z,63.00
2022-09-02T09:39:39.111Z,61.97
2022-09-02T09:44:37.440Z,61.80
2022-09-02T09:49:36.583Z,61.34
2022-09-02T09:54:36.733Z,61.18
2022-09-02T09:59:34.062Z,60.98
2022-09-02T10:04:43.267Z,62.71
2022-09-02T10:09:33.633Z,63.87
2022-09-02T10:14:31.785Z,63.64
2022-09-02T10:19:31.942Z,63.75
2022-09-02T10:24:30.076Z,63.42
2022-09-02T10:29:30.305Z,62.35
2022-09-02T10:34:29.458Z,63.48
2022-09-02T10:39:27.624Z,63.28
2022-09-02T10:44:27.780Z,64.42
2022-09-02T10:49:25.942Z,65.22
2022-09-02T10:54:27.080Z,65.52
2022-09-02T10:59:25.477Z,64.18
2022-09-02T11:04:25.292Z,65.09
2022-09-02T11:09:23.955Z,64.81
2022-09-02T11:14:22.278Z,64.39
2022-09-02T11:19:22.412Z,63.98
2022-09-02T11:24:20.608Z,62.22
2022-09-02T11:29:20.736Z,61.16
2022-09-02T11:34:20.042Z,60.74
2022-09-02T11:39:30.531Z,60.63
2022-09-02T11:44:17.529Z,60.00
2022-09-02T11:49:15.812Z,60.31
2022-09-02T11:54:16.012Z,59.68
2022-09-02T11:59:15.336Z,59.58
2022-09-02T12:04:56.302Z,59.48
2022-09-02T12:09:15.778Z,59.68
2022-09-02T12:14:14.975Z,59.58
2022-09-02T12:19:12.273Z,59.35
2022-09-02T12:24:11.587Z,59.45
2022-09-02T12:29:12.867Z,59.45
2022-09-02T12:34:11.173Z,59.75
2022-09-02T12:39:09.947Z,59.75
2022-09-02T12:44:08.708Z,59.82
2022-09-02T12:49:08.867Z,59.82
2022-09-02T12:54:07.131Z,59.42
2022-09-02T12:59:06.384Z,59.62
2022-09-02T13:04:06.699Z,59.22
2022-09-02T13:09:06.000Z,59.22
2022-09-02T13:14:04.279Z,58.72
2022-09-02T13:19:03.543Z,58.59
2022-09-02T13:24:02.823Z,59.09
2022-09-02T13:29:06.100Z,59.09
2022-09-02T13:34:04.238Z,59.09
2022-09-02T13:39:01.551Z,58.70
2022-09-02T13:43:59.846Z,58.40
2022-09-02T13:48:59.159Z,58.20
2022-09-02T13:54:22.581Z,58.00
2022-09-02T13:58:57.619Z,57.90
2022-09-02T14:03:56.011Z,57.77
2022-09-02T14:08:57.136Z,57.28
2022-09-02T14:13:55.421Z,56.77
2022-09-02T14:18:55.761Z,56.68
2022-09-02T14:23:55.037Z,55.98
2022-09-02T14:28:54.323Z,56.08
2022-09-02T14:33:53.609Z,55.88
2022-09-02T14:38:52.880Z,55.98
2022-09-02T14:43:51.184Z,54.68
2022-09-02T14:48:51.516Z,53.89
2022-09-02T14:53:50.831Z,53.49
2022-09-02T14:58:49.145Z,52.49
2022-09-02T15:03:48.493Z,53.69
2022-09-02T15:08:47.614Z,52.19
2022-09-02T15:13:48.932Z,52.57
2022-09-02T15:18:47.034Z,52.76
2022-09-02T15:23:50.973Z,52.37
2022-09-02T15:28:44.665Z,51.67
2022-09-02T15:33:43.855Z,51.77
2022-09-02T15:38:43.024Z,51.27
2022-09-02T15:43:42.211Z,51.47
2022-09-02T15:48:42.396Z,51.97
2022-09-02T15:53:40.582Z,52.17
2022-09-02T15:58:39.775Z,52.37
2022-09-02T16:03:39.001Z,52.47
2022-09-02T16:08:40.150Z,53.86
2022-09-02T16:13:37.349Z,54.26
2022-09-02T16:18:38.535Z,54.66
2022-09-02T16:23:35.703Z,54.66
2022-09-02T16:28:34.870Z,55.05
2022-09-02T16:33:34.050Z,55.35
2022-09-02T16:38:34.225Z,55.26
2022-09-02T16:43:33.388Z,55.35
2022-09-02T16:48:31.605Z,55.05
2022-09-02T16:53:30.781Z,55.35
2022-09-02T16:58:30.945Z,55.46
2022-09-02T17:03:29.104Z,55.76
2022-09-02T17:08:28.306Z,56.35
2022-09-02T17:13:27.479Z,56.75
2022-09-02T17:18:27.669Z,55.65
2022-09-02T17:23:25.837Z,55.46
2022-09-02T17:28:26.039Z,55.85
2022-09-02T17:33:24.367Z,56.05
2022-09-02T17:38:27.250Z,55.55
2022-09-02T17:43:22.617Z,55.35
2022-09-02T17:48:53.696Z,55.46
2022-09-02T17:53:22.955Z,55.95
2022-09-02T17:58:23.248Z,56.08
2022-09-02T18:03:22.305Z,56.27
2022-09-02T18:08:19.748Z,55.95
2022-09-02T18:13:18.910Z,57.50
2022-09-02T18:18:18.084Z,56.98
2022-09-02T18:23:17.248Z,58.29
2022-09-02T18:28:16.428Z,59.22
2022-09-02T18:33:14.615Z,57.28
2022-09-02T18:38:15.828Z,57.80
2022-09-02T18:43:12.983Z,58.00
2022-09-02T18:48:14.402Z,58.40
2022-09-02T18:53:13.428Z,66.09
2022-09-02T18:58:12.607Z,64.39
2022-09-02T19:03:10.953Z,62.46
2022-09-02T19:08:09.299Z,61.71
2022-09-02T19:13:08.310Z,60.08
2022-09-02T19:18:07.777Z,59.85
2022-09-02T19:23:05.932Z,58.53
2022-09-02T19:28:07.161Z,58.42
2022-09-02T19:33:06.427Z,56.98
2022-09-02T19:38:04.765Z,56.68
2022-09-02T19:43:03.759Z,56.08
2022-09-02T19:48:07.934Z,56.27
2022-09-02T19:53:02.206Z,58.06
2022-09-02T19:58:01.408Z,57.26
2022-09-02T20:03:00.584Z,57.23
2022-09-02T20:08:02.812Z,57.98
2022-09-02T20:13:00.995Z,56.53
2022-09-02T20:17:58.171Z,56.73
2022-09-02T20:22:59.402Z,56.40
2022-09-02T20:27:59.119Z,56.21
2022-09-02T20:32:57.750Z,57.23
2022-09-02T20:37:55.927Z,57.13
2022-09-02T20:42:54.114Z,59.31
2022-09-02T20:47:53.312Z,58.25
2022-09-02T20:52:54.486Z,57.15
2022-09-02T20:57:52.666Z,56.63
2022-09-02T21:02:50.848Z,56.83
2022-09-02T21:07:51.022Z,55.83
2022-09-02T21:12:50.181Z,56.63
2022-09-02T21:17:49.359Z,57.56
2022-09-02T21:22:47.522Z,57.78
2022-09-02T21:27:48.710Z,57.06
2022-09-02T21:32:45.908Z,57.35
2022-09-02T21:37:46.087Z,57.26
2022-09-02T21:42:46.277Z,56.23
2022-09-02T21:47:45.414Z,56.09
2022-09-02T21:52:42.585Z,56.26
2022-09-02T21:57:43.799Z,55.49
2022-09-02T22:02:42.950Z,58.76
2022-09-02T22:07:41.109Z,56.21
2022-09-02T22:12:39.295Z,57.21
2022-09-02T22:17:38.467Z,58.37
2022-09-02T22:22:38.657Z,58.64
2022-09-02T22:27:36.824Z,57.24
2022-09-02T22:32:36.021Z,58.24
2022-09-02T22:37:35.231Z,57.31
2022-09-02T22:42:34.394Z,56.34
2022-09-02T22:47:33.572Z,55.09
2022-09-02T22:52:33.767Z,55.91
2022-09-02T22:57:32.876Z,58.02
2022-09-02T23:02:32.178Z,58.29
2022-09-02T23:07:30.362Z,57.29
2022-09-02T23:12:29.549Z,55.64
2022-09-02T23:17:28.747Z,55.94
2022-09-02T23:22:28.932Z,56.21
2022-09-02T23:27:29.136Z,55.58
2022-09-02T23:32:26.312Z,55.11
2022-09-02T23:37:25.479Z,55.39
2022-09-02T23:42:24.654Z,55.02
2022-09-02T23:47:23.863Z,54.27
2022-09-02T23:52:24.021Z,53.17
2022-09-02T23:57:23.176Z,53.99
